Lamy, New Mexico
Current Conditions -  °F | °C
As of 2:53 AM on Friday 21 Nov 2014 (Local Time) from KSAF Reporting Station
Clear Clear  
Wind Chill: -8°   Ceiling: Unl
Heat Index: -3°   Visibility: 10mi
Dew Point: -11°   Wind: 8mph
Humidity: 58%   Direction: 10°N
Pressure: 30.06"   Gusts: NA
Location:  35.48°N, 105.88°W
Report Text: KSAF 210953Z AUTO 01007KT 10SM CLR M03/M11 A3006 RMK AO2 SLP151 T10331106
Loading
Personal Weather Stations






























Interactive Weather Map New forecast layout! Learn more

10-Day Weather Forecast

Advertisements
Track Severe Weather on mobile